Time;durP1;ratioP1;P1;durP2;ratioP2;P2;SDS_P1;SDS_P2;PMS_P1;PMS_P2;Temp;Humidity;BMP_temperature;BMP_pressure;BME280_temperature;BME280_humidity;BME280_pressure;Samples;Min_cycle;Max_cycle;Signal;HPM_P1;HPM_P2
2021/06/24 00:01:53;;;;;;;13.15;7.38;;;;;;;17.76;66.93;100999.81;4876777;28;98302;-73
2021/06/24 00:04:19;;;;;;;8.63;6.93;;;;;;;17.82;66.23;101008.72;4904534;28;125868;-73
2021/06/24 00:06:45;;;;;;;9.00;7.15;;;;;;;17.82;66.99;101012.25;4904592;28;127820;-73
2021/06/24 00:09:11;;;;;;;8.50;6.70;;;;;;;17.82;65.78;101016.91;4892231;28;127877;-73
2021/06/24 00:11:37;;;;;;;9.85;6.70;;;;;;;17.72;66.50;101019.78;4905301;28;98070;-80
2021/06/24 00:14:03;;;;;;;10.85;7.00;;;;;;;17.76;66.43;101039.91;4904209;28;106124;-75
2021/06/24 00:16:29;;;;;;;11.00;7.43;;;;;;;17.78;66.56;101038.50;4901321;28;123678;-72
2021/06/24 00:18:55;;;;;;;10.48;7.25;;;;;;;17.80;66.84;101047.22;4901487;28;127856;-81
2021/06/24 00:21:22;;;;;;;11.35;7.93;;;;;;;17.80;66.67;101043.66;4871427;28;97786;-73
2021/06/24 00:23:48;;;;;;;12.00;7.43;;;;;;;17.81;66.33;101035.19;4886830;28;98576;-73
2021/06/24 00:26:14;;;;;;;9.32;7.53;;;;;;;17.74;67.03;101047.56;4886130;28;100449;-80
2021/06/24 00:28:40;;;;;;;12.48;7.85;;;;;;;17.80;67.18;101041.75;4869315;28;125600;-81
2021/06/24 00:31:06;;;;;;;8.38;7.22;;;;;;;17.80;67.55;101039.03;4870364;28;98181;-72
2021/06/24 00:33:32;;;;;;;9.43;7.40;;;;;;;17.76;67.12;101035.25;4887023;28;127559;-80
2021/06/24 00:35:58;;;;;;;9.75;7.50;;;;;;;17.66;67.10;101040.91;4913932;28;128130;-80
2021/06/24 00:38:24;;;;;;;10.05;7.35;;;;;;;17.72;67.56;101049.78;4902686;28;98173;-72
2021/06/24 00:40:50;;;;;;;8.98;7.10;;;;;;;17.54;67.29;101043.31;4870939;28;97851;-80
2021/06/24 00:43:18;;;;;;;11.95;6.93;;;;;;;17.46;67.62;101038.53;4915318;28;97757;-80
2021/06/24 00:45:45;;;;;;;8.43;7.47;;;;;;;17.49;68.44;101032.47;4905288;28;99249;-73
2021/06/24 00:48:12;;;;;;;10.95;7.40;;;;;;;17.22;68.60;101014.97;4920873;28;98131;-81
2021/06/24 00:50:40;;;;;;;12.98;7.50;;;;;;;17.30;68.32;101019.72;4923213;28;97768;-81
2021/06/24 00:53:06;;;;;;;10.02;7.38;;;;;;;17.44;68.66;101008.84;4911216;28;117187;-72
2021/06/24 00:55:43;;;;;;;10.60;7.63;;;;;;;17.44;68.91;101006.13;4903148;28;120334;-80
2021/06/24 00:58:13;;;;;;;10.77;7.70;;;;;;;17.31;69.87;101010.44;4902757;28;97954;-72
2021/06/24 01:00:40;;;;;;;10.05;7.72;;;;;;;17.21;70.38;101007.88;4904437;28;98082;-81
2021/06/24 01:03:06;;;;;;;11.98;8.68;;;;;;;17.31;70.25;100999.53;4887340;28;98255;-81
2021/06/24 01:05:32;;;;;;;11.25;8.40;;;;;;;17.23;71.41;101004.88;4901055;28;107911;-81
2021/06/24 01:07:58;;;;;;;13.50;9.05;;;;;;;17.07;72.51;101007.06;4920992;28;110209;-82
2021/06/24 01:10:24;;;;;;;11.18;9.07;;;;;;;17.07;73.02;101004.31;4889761;28;98090;-71
2021/06/24 01:12:51;;;;;;;13.40;9.57;;;;;;;17.04;72.49;101004.91;4902599;28;126222;-71
2021/06/24 01:15:17;;;;;;;12.68;10.15;;;;;;;17.01;73.68;101003.59;4901259;28;128562;-71
2021/06/24 01:17:43;;;;;;;13.70;10.00;;;;;;;16.93;74.01;100998.81;4901816;28;98205;-82
2021/06/24 01:20:09;;;;;;;12.63;10.05;;;;;;;17.00;74.89;100995.72;4901906;28;97894;-81
2021/06/24 01:22:35;;;;;;;14.30;10.02;;;;;;;16.98;74.87;100982.41;4885517;28;101308;-81
2021/06/24 01:25:02;;;;;;;11.95;9.57;;;;;;;16.93;75.27;100982.47;4903179;28;127081;-81
2021/06/24 01:27:28;;;;;;;11.70;10.38;;;;;;;16.88;75.72;100974.41;4921983;28;98081;-81
2021/06/24 01:29:54;;;;;;;12.55;10.50;;;;;;;16.83;75.99;100963.59;4875977;28;117240;-70
2021/06/24 01:32:20;;;;;;;12.35;10.15;;;;;;;16.81;75.73;100952.19;4900197;28;128272;-70
2021/06/24 01:34:46;;;;;;;13.25;10.07;;;;;;;16.87;76.27;100931.97;4885565;28;116937;-81
2021/06/24 01:37:12;;;;;;;13.18;10.25;;;;;;;16.86;76.71;100919.47;4902880;28;124700;-79
2021/06/24 01:39:38;;;;;;;14.80;11.27;;;;;;;16.82;76.37;100911.06;4908500;28;106523;-80
2021/06/24 01:42:04;;;;;;;13.70;10.98;;;;;;;16.82;77.31;100896.63;4920295;28;98493;-80
2021/06/24 01:44:37;;;;;;;13.95;12.18;;;;;;;16.76;77.45;100884.22;4919705;28;99580;-70
2021/06/24 01:47:08;;;;;;;15.27;11.95;;;;;;;16.81;77.56;100886.84;4904094;28;97937;-70
2021/06/24 01:49:34;;;;;;;13.90;11.60;;;;;;;16.84;77.38;100878.91;4922353;28;106119;-70
2021/06/24 01:52:00;;;;;;;14.55;13.02;;;;;;;16.85;78.35;100872.34;4903253;28;127198;-79
2021/06/24 01:54:26;;;;;;;15.48;12.48;;;;;;;16.80;78.26;100864.28;4915615;28;120039;-80
2021/06/24 01:56:52;;;;;;;15.57;12.50;;;;;;;16.79;78.11;100843.63;4868466;28;104943;-79
2021/06/24 01:59:18;;;;;;;14.63;13.07;;;;;;;16.77;78.45;100837.66;4886285;28;97758;-80
2021/06/24 02:01:44;;;;;;;17.45;13.57;;;;;;;16.65;78.18;100829.94;4903327;28;125961;-80
2021/06/24 02:04:10;;;;;;;13.80;12.15;;;;;;;16.57;78.20;100816.22;4885122;28;98510;-80
2021/06/24 02:06:36;;;;;;;14.88;12.15;;;;;;;16.68;78.00;100812.22;4885799;28;126357;-69
2021/06/24 02:09:03;;;;;;;15.38;11.60;;;;;;;16.56;77.80;100820.84;4904097;28;97914;-80
2021/06/24 02:11:29;;;;;;;14.70;12.20;;;;;;;16.44;77.91;100799.56;4921062;28;98192;-79
2021/06/24 02:13:55;;;;;;;17.10;12.95;;;;;;;16.29;78.82;100799.81;4903399;28;101100;-69
2021/06/24 02:16:21;;;;;;;20.92;12.95;;;;;;;16.22;79.18;100804.00;4919317;28;124762;-76
2021/06/24 02:18:47;;;;;;;14.30;12.75;;;;;;;16.31;79.26;100826.69;4922259;28;98150;-74
2021/06/24 02:21:13;;;;;;;15.45;12.60;;;;;;;16.27;79.63;100853.72;4903524;28;117894;-80
2021/06/24 02:23:39;;;;;;;15.82;11.88;;;;;;;16.22;78.17;100855.69;4915218;28;125948;-80
2021/06/24 02:26:05;;;;;;;16.00;12.27;;;;;;;16.31;79.56;100856.63;4920651;28;97795;-80
2021/06/24 02:28:32;;;;;;;14.48;12.50;;;;;;;16.35;79.27;100855.75;4901517;28;117101;-70
2021/06/24 02:30:58;;;;;;;15.73;13.77;;;;;;;16.29;79.48;100865.09;4899665;28;126667;-70
2021/06/24 02:33:24;;;;;;;17.30;12.63;;;;;;;16.31;79.59;100862.06;4901020;28;126085;-70
2021/06/24 02:35:57;;;;;;;16.58;12.93;;;;;;;16.33;79.36;100868.03;4902666;28;97910;-80
2021/06/24 02:38:23;;;;;;;14.70;12.63;;;;;;;16.37;79.07;100874.50;4900838;28;97973;-70
2021/06/24 02:40:49;;;;;;;15.07;12.70;;;;;;;16.39;79.66;100872.31;4884035;28;98083;-70
2021/06/24 02:43:15;;;;;;;14.60;12.15;;;;;;;16.30;78.85;100865.91;4899784;28;113651;-82
2021/06/24 02:45:42;;;;;;;15.50;12.30;;;;;;;16.33;78.96;100857.94;4884095;28;125860;-70
2021/06/24 02:48:09;;;;;;;13.90;12.48;;;;;;;16.32;79.40;100860.97;4900798;28;98417;-70
2021/06/24 02:50:35;;;;;;;16.20;12.35;;;;;;;16.26;79.84;100870.31;4907911;28;98683;-81
2021/06/24 02:53:01;;;;;;;16.20;12.80;;;;;;;16.27;79.44;100882.78;4901104;28;102588;-70
2021/06/24 02:55:30;;;;;;;13.82;12.15;;;;;;;16.36;80.11;100898.16;4899834;28;127233;-81
2021/06/24 02:57:59;;;;;;;14.30;12.52;;;;;;;16.31;80.08;100894.69;4902469;28;97957;-70
2021/06/24 03:00:26;;;;;;;15.00;13.13;;;;;;;16.28;80.22;100892.59;4884917;28;98644;-81
2021/06/24 03:02:53;;;;;;;15.10;13.13;;;;;;;16.30;80.55;100895.81;4909876;28;99170;-70
2021/06/24 03:05:19;;;;;;;17.48;12.90;;;;;;;16.22;79.88;100896.47;4905289;28;110922;-71
2021/06/24 03:07:46;;;;;;;14.73;13.18;;;;;;;16.31;80.36;100900.16;4902507;28;98291;-70
2021/06/24 03:10:12;;;;;;;15.48;13.68;;;;;;;16.28;80.59;100908.91;4901718;28;98076;-70
2021/06/24 03:12:38;;;;;;;14.30;12.80;;;;;;;16.26;80.89;100906.47;4901435;28;98249;-70
2021/06/24 03:15:06;;;;;;;15.18;13.63;;;;;;;16.08;81.62;100916.25;4900433;28;100242;-71
2021/06/24 03:17:32;;;;;;;15.63;12.18;;;;;;;16.23;80.72;100906.25;4910152;28;98171;-70
2021/06/24 03:19:58;;;;;;;14.65;13.10;;;;;;;16.20;81.49;100918.53;4920743;28;112664;-81
2021/06/24 03:22:24;;;;;;;13.68;12.30;;;;;;;16.34;81.05;100910.44;4920018;28;127312;-70
2021/06/24 03:24:50;;;;;;;14.40;12.32;;;;;;;16.32;81.34;100920.81;4885936;28;126825;-71
2021/06/24 03:27:16;;;;;;;14.18;12.82;;;;;;;16.35;80.85;100906.63;4916170;28;97977;-82
2021/06/24 03:29:42;;;;;;;14.88;13.35;;;;;;;16.29;80.67;100914.06;4884615;28;126887;-70
2021/06/24 03:32:08;;;;;;;16.25;13.63;;;;;;;16.33;81.09;100906.13;4883438;28;126677;-70
2021/06/24 03:34:35;;;;;;;16.08;12.68;;;;;;;16.24;80.93;100913.31;4898953;28;126296;-82
2021/06/24 03:37:01;;;;;;;14.85;13.35;;;;;;;16.18;81.16;100918.81;4885431;28;97924;-70
2021/06/24 03:39:27;;;;;;;15.07;13.48;;;;;;;16.26;81.68;100920.06;4882209;28;125602;-70
2021/06/24 03:41:53;;;;;;;16.27;13.18;;;;;;;16.22;81.37;100913.59;4899288;28;114422;-82
2021/06/24 03:44:19;;;;;;;16.00;14.32;;;;;;;16.23;81.70;100914.41;4867616;28;100185;-81
2021/06/24 03:46:45;;;;;;;15.98;13.77;;;;;;;16.22;80.79;100924.47;4909671;28;98312;-70
2021/06/24 03:49:11;;;;;;;14.95;13.45;;;;;;;16.20;81.07;100930.22;4886053;28;116983;-82
2021/06/24 03:51:37;;;;;;;15.23;13.50;;;;;;;16.20;80.72;100929.41;4907129;28;98967;-82
2021/06/24 03:54:04;;;;;;;15.05;13.35;;;;;;;16.22;80.97;100921.75;4883266;28;125641;-70
2021/06/24 03:56:30;;;;;;;14.60;12.75;;;;;;;16.17;80.10;100930.00;4867831;28;98133;-82
2021/06/24 03:58:56;;;;;;;15.40;13.07;;;;;;;16.19;80.23;100925.06;4897920;28;127123;-71
2021/06/24 04:01:22;;;;;;;15.77;13.73;;;;;;;16.13;80.85;100921.63;4900263;28;127686;-71
2021/06/24 04:03:48;;;;;;;15.23;13.48;;;;;;;16.22;80.42;100929.91;4867374;28;98118;-70
2021/06/24 04:06:14;;;;;;;16.30;13.25;;;;;;;16.21;80.44;100920.16;4886387;28;117882;-71
2021/06/24 04:08:40;;;;;;;15.10;13.55;;;;;;;16.16;81.14;100922.97;4912964;28;103198;-83
2021/06/24 04:11:06;;;;;;;15.90;13.07;;;;;;;16.16;81.21;100922.97;4902299;28;121253;-71
2021/06/24 04:13:32;;;;;;;15.82;14.15;;;;;;;16.15;81.26;100921.31;4902017;28;113485;-70
2021/06/24 04:15:58;;;;;;;18.20;14.70;;;;;;;16.14;81.22;100915.06;4920716;28;110903;-70
2021/06/24 04:18:24;;;;;;;16.27;14.57;;;;;;;16.17;81.72;100911.78;4923585;28;97939;-70
2021/06/24 04:20:50;;;;;;;17.35;15.27;;;;;;;16.08;81.47;100912.75;4921320;28;127613;-82
2021/06/24 04:23:16;;;;;;;14.82;13.00;;;;;;;16.14;80.50;100911.53;4920471;28;127638;-82
2021/06/24 04:25:43;;;;;;;14.95;13.05;;;;;;;16.04;80.60;100917.16;4904558;28;116104;-83
2021/06/24 04:28:09;;;;;;;15.55;13.55;;;;;;;16.07;81.36;100911.94;4922162;28;121751;-82
2021/06/24 04:30:35;;;;;;;16.00;14.20;;;;;;;16.01;81.25;100909.56;4904465;28;107859;-71
2021/06/24 04:33:01;;;;;;;14.50;12.75;;;;;;;15.97;80.52;100916.69;4901797;28;127947;-82
2021/06/24 04:35:27;;;;;;;15.77;13.85;;;;;;;15.99;81.57;100919.91;4903865;28;103563;-71
2021/06/24 04:37:54;;;;;;;14.38;12.70;;;;;;;15.97;81.21;100922.13;4914416;28;98043;-82
2021/06/24 04:40:20;;;;;;;15.73;13.32;;;;;;;16.03;81.68;100934.53;4923279;28;98323;-71
2021/06/24 04:42:46;;;;;;;14.43;12.73;;;;;;;16.06;81.77;100951.06;4912458;28;118772;-71
2021/06/24 04:45:13;;;;;;;16.63;13.45;;;;;;;16.00;81.16;100948.75;4886536;28;97921;-71
2021/06/24 04:47:40;;;;;;;14.75;12.88;;;;;;;16.03;80.84;100938.06;4901760;28;98293;-81
2021/06/24 04:50:07;;;;;;;15.38;13.90;;;;;;;15.99;81.11;100937.03;4902695;28;98281;-82
2021/06/24 04:52:33;;;;;;;13.52;12.23;;;;;;;16.05;80.80;100932.34;4894238;28;97864;-71
2021/06/24 04:54:59;;;;;;;14.82;12.68;;;;;;;16.08;80.18;100929.06;4885247;28;117853;-72
2021/06/24 04:57:25;;;;;;;15.95;14.30;;;;;;;16.03;80.60;100926.38;4884072;28;126880;-82
2021/06/24 04:59:51;;;;;;;15.57;14.00;;;;;;;16.11;80.94;100925.72;4902937;28;127901;-71
2021/06/24 05:02:17;;;;;;;14.90;13.32;;;;;;;16.20;80.23;100934.88;4902928;28;98309;-71
2021/06/24 05:04:44;;;;;;;14.70;13.07;;;;;;;16.23;80.25;100944.31;4886096;28;97845;-82
2021/06/24 05:07:10;;;;;;;13.85;12.38;;;;;;;16.34;80.41;100948.53;4869437;28;99273;-71
2021/06/24 05:09:40;;;;;;;14.77;13.40;;;;;;;16.37;80.19;100953.38;4903211;28;98728;-82
2021/06/24 05:12:08;;;;;;;15.43;13.80;;;;;;;16.42;80.60;100950.56;4888038;28;98070;-71
2021/06/24 05:14:35;;;;;;;17.65;13.70;;;;;;;16.43;80.04;100935.91;4901766;28;97974;-71
2021/06/24 05:17:01;;;;;;;15.68;13.63;;;;;;;16.51;79.45;100946.09;4885118;28;98157;-72
2021/06/24 05:19:28;;;;;;;14.75;13.25;;;;;;;16.57;79.01;100936.75;4902619;28;98753;-72
2021/06/24 05:21:54;;;;;;;18.65;13.00;;;;;;;16.74;79.20;100952.59;4885465;28;105343;-82
2021/06/24 05:24:20;;;;;;;14.98;13.35;;;;;;;16.89;79.02;100946.06;4902034;28;97816;-83
2021/06/24 05:26:46;;;;;;;14.95;13.35;;;;;;;16.99;78.88;100954.06;4868854;28;128052;-82
2021/06/24 05:29:12;;;;;;;15.15;13.63;;;;;;;17.03;78.31;100944.19;4884746;28;111229;-82
2021/06/24 05:31:39;;;;;;;15.65;13.63;;;;;;;17.12;77.96;100936.16;4881046;28;126487;-71
2021/06/24 05:34:05;;;;;;;14.93;13.32;;;;;;;17.15;77.60;100930.09;4920864;28;98310;-82
2021/06/24 05:36:33;;;;;;;14.50;12.98;;;;;;;17.30;77.13;100935.28;4919824;28;103731;-81
2021/06/24 05:38:59;;;;;;;14.48;12.75;;;;;;;17.60;76.98;100933.84;4910185;28;99605;-82
2021/06/24 05:41:25;;;;;;;14.50;12.52;;;;;;;17.42;76.64;100945.69;4884824;28;105370;-81
2021/06/24 05:43:51;;;;;;;14.90;12.50;;;;;;;17.28;76.89;100950.28;4902143;28;117778;-72
2021/06/24 05:46:17;;;;;;;17.02;14.52;;;;;;;17.07;77.93;100944.41;4888469;28;127407;-82
2021/06/24 05:48:43;;;;;;;14.30;12.90;;;;;;;17.18;78.03;100949.38;4883710;28;127465;-72
2021/06/24 05:51:09;;;;;;;14.95;13.52;;;;;;;17.09;78.14;100943.00;4885460;28;97995;-72
2021/06/24 05:53:36;;;;;;;14.90;13.45;;;;;;;17.06;78.75;100943.59;4915313;28;97936;-82
2021/06/24 05:56:02;;;;;;;17.95;14.25;;;;;;;17.10;78.47;100941.09;4902461;28;127919;-71
2021/06/24 05:58:29;;;;;;;15.45;13.85;;;;;;;17.13;78.66;100941.31;4899657;28;99079;-81
2021/06/24 06:00:59;;;;;;;15.60;14.02;;;;;;;17.19;78.82;100936.56;4901395;28;98487;-71
2021/06/24 06:03:25;;;;;;;14.77;13.40;;;;;;;17.44;78.51;100929.81;4886327;28;98024;-81
2021/06/24 06:05:52;;;;;;;15.43;13.82;;;;;;;17.58;77.99;100932.56;4913409;28;98126;-82
2021/06/24 06:08:18;;;;;;;14.27;12.80;;;;;;;17.72;76.42;100929.81;4913318;28;109551;-71
2021/06/24 06:10:44;;;;;;;15.13;13.15;;;;;;;18.09;75.68;100928.81;4914885;28;97867;-71
2021/06/24 06:13:11;;;;;;;14.73;12.52;;;;;;;18.22;74.87;100933.41;4920682;28;97891;-81
2021/06/24 06:15:42;;;;;;;13.40;11.55;;;;;;;18.13;74.48;100932.53;4922051;28;98105;-71
2021/06/24 06:18:17;;;;;;;13.80;12.50;;;;;;;18.26;74.64;100919.97;4919415;28;98702;-83
2021/06/24 06:20:44;;;;;;;15.60;11.77;;;;;;;18.25;74.32;100924.63;4919546;28;98015;-71
2021/06/24 06:23:11;;;;;;;12.82;11.20;;;;;;;18.52;72.85;100928.38;4919593;28;97803;-81
2021/06/24 06:25:37;;;;;;;12.85;11.25;;;;;;;18.42;75.01;100939.53;4920949;28;120395;-71
2021/06/24 06:28:03;;;;;;;11.52;10.07;;;;;;;18.57;71.00;100933.72;4902871;28;105890;-82
2021/06/24 06:30:30;;;;;;;10.73;9.68;;;;;;;18.92;70.67;100944.91;4921267;28;110711;-82
2021/06/24 06:32:56;;;;;;;10.85;9.75;;;;;;;19.06;70.43;100942.88;4900120;28;97948;-83
2021/06/24 06:35:22;;;;;;;10.63;9.52;;;;;;;19.55;67.77;100936.38;4916166;28;126953;-82
2021/06/24 06:37:48;;;;;;;10.63;9.05;;;;;;;20.14;67.44;100935.25;4884300;28;100152;-82
2021/06/24 06:40:14;;;;;;;10.75;8.30;;;;;;;20.90;64.42;100932.81;4902131;28;98108;-82
2021/06/24 06:42:40;;;;;;;10.13;7.90;;;;;;;20.97;61.00;100941.34;4902305;28;97766;-71
2021/06/24 06:45:07;;;;;;;9.00;6.80;;;;;;;21.21;63.93;100945.50;4901097;28;128230;-82
2021/06/24 06:47:34;;;;;;;10.88;7.05;;;;;;;21.39;62.84;100938.06;4902109;28;98902;-72
2021/06/24 06:50:00;;;;;;;8.55;7.53;;;;;;;21.01;64.37;100947.00;4900234;28;98072;-71
2021/06/24 06:52:26;;;;;;;10.18;7.85;;;;;;;21.05;63.96;100945.22;4900643;28;97703;-72
2021/06/24 06:54:52;;;;;;;9.55;7.70;;;;;;;20.30;65.92;100944.59;4901429;28;120616;-81
2021/06/24 06:57:18;;;;;;;9.77;8.43;;;;;;;19.52;68.21;100950.66;4900934;28;125246;-82
2021/06/24 06:59:44;;;;;;;10.82;8.90;;;;;;;19.44;69.16;100951.44;4899683;28;104464;-71
2021/06/24 07:02:10;;;;;;;11.02;9.40;;;;;;;19.62;68.51;100944.16;4899660;28;118723;-72
2021/06/24 07:04:37;;;;;;;12.07;9.40;;;;;;;19.66;68.18;100941.59;4916532;28;99236;-72
2021/06/24 07:07:04;;;;;;;11.95;10.30;;;;;;;19.63;69.46;100934.03;4871353;28;100016;-72
2021/06/24 07:09:30;;;;;;;11.70;10.45;;;;;;;19.56;70.07;100950.84;4909417;28;105723;-83
2021/06/24 07:11:56;;;;;;;11.25;9.93;;;;;;;19.42;70.51;100955.63;4883359;28;116911;-72
2021/06/24 07:14:22;;;;;;;10.60;9.60;;;;;;;19.32;70.78;100952.03;4899973;28;127911;-72
2021/06/24 07:16:48;;;;;;;11.75;10.65;;;;;;;19.08;71.12;100957.06;4884213;28;98615;-72
2021/06/24 07:19:15;;;;;;;12.85;10.68;;;;;;;18.79;71.53;100958.31;4898964;28;128026;-83
2021/06/24 07:21:41;;;;;;;13.00;11.60;;;;;;;18.80;73.12;100956.41;4900511;28;107703;-72
2021/06/24 07:24:07;;;;;;;13.40;11.25;;;;;;;18.71;73.07;100952.81;4900388;28;97896;-83
2021/06/24 07:26:34;;;;;;;12.95;11.55;;;;;;;18.63;72.51;100957.06;4883332;28;118176;-73
2021/06/24 07:29:00;;;;;;;11.68;10.48;;;;;;;18.65;72.12;100965.72;4882938;28;98990;-73
2021/06/24 07:31:26;;;;;;;13.32;10.88;;;;;;;18.52;72.54;100963.88;4907366;28;98339;-73
2021/06/24 07:33:52;;;;;;;12.30;10.20;;;;;;;18.57;71.89;100961.00;4917277;28;123006;-73
2021/06/24 07:36:19;;;;;;;11.18;9.98;;;;;;;18.55;72.39;100958.59;4903350;28;98574;-73
2021/06/24 07:38:45;;;;;;;13.63;11.88;;;;;;;18.53;72.76;100962.75;4901940;28;98582;-74
2021/06/24 07:41:11;;;;;;;12.52;11.23;;;;;;;18.67;73.69;100957.22;4888788;28;98244;-73
2021/06/24 07:43:37;;;;;;;12.48;10.55;;;;;;;18.65;72.61;100958.34;4889597;28;99630;-83
2021/06/24 07:46:03;;;;;;;14.80;11.52;;;;;;;18.68;73.31;100965.13;4889326;28;126587;-73
2021/06/24 07:48:29;;;;;;;11.65;10.50;;;;;;;18.72;72.78;100965.34;4904195;28;125638;-82
2021/06/24 07:50:55;;;;;;;10.88;9.88;;;;;;;18.73;72.94;100958.75;4906211;28;97994;-83
2021/06/24 07:53:21;;;;;;;11.95;10.75;;;;;;;18.82;72.42;100956.88;4888860;28;126226;-82
2021/06/24 07:55:47;;;;;;;12.75;11.32;;;;;;;18.89;72.75;100962.72;4888941;28;98369;-82
2021/06/24 07:58:14;;;;;;;11.88;10.63;;;;;;;18.89;72.45;100958.06;4889511;28;98067;-82
2021/06/24 08:00:40;;;;;;;13.95;11.82;;;;;;;18.78;72.76;100956.69;4906274;28;99396;-82
2021/06/24 08:03:07;;;;;;;12.43;11.23;;;;;;;18.74;72.56;100963.88;4920881;28;127499;-73
2021/06/24 08:05:33;;;;;;;13.35;11.95;;;;;;;18.61;73.58;100964.72;4905360;28;99083;-73
2021/06/24 08:08:00;;;;;;;12.65;11.07;;;;;;;18.64;73.71;100967.66;4906503;28;98399;-82
2021/06/24 08:10:26;;;;;;;12.27;11.02;;;;;;;18.99;73.25;100958.94;4921243;28;118828;-74
2021/06/24 08:12:52;;;;;;;12.20;10.60;;;;;;;19.08;72.38;100949.66;4920836;28;127649;-73
2021/06/24 08:15:20;;;;;;;12.70;11.02;;;;;;;19.09;71.55;100950.47;4920271;28;120316;-73
2021/06/24 08:17:46;;;;;;;12.38;10.90;;;;;;;19.03;71.34;100952.53;4889211;28;97971;-74
2021/06/24 08:20:13;;;;;;;13.25;11.85;;;;;;;18.87;72.22;100954.03;4921787;28;98022;-82
2021/06/24 08:22:39;;;;;;;14.70;13.15;;;;;;;18.72;72.92;100951.69;4921613;28;106301;-81
2021/06/24 08:25:06;;;;;;;15.68;13.18;;;;;;;18.68;73.51;100954.19;4921251;28;125682;-73
2021/06/24 08:27:34;;;;;;;14.68;13.15;;;;;;;18.89;73.00;100962.72;4904422;28;112964;-73
2021/06/24 08:30:01;;;;;;;14.98;13.10;;;;;;;18.92;72.19;100966.75;4923287;28;98046;-73
2021/06/24 08:32:27;;;;;;;15.35;13.80;;;;;;;18.95;72.28;100966.94;4921125;28;98040;-73
2021/06/24 08:34:53;;;;;;;13.90;12.50;;;;;;;18.85;72.04;100964.44;4923279;28;98888;-81
2021/06/24 08:37:19;;;;;;;16.30;14.57;;;;;;;18.87;71.96;100960.31;4888564;28;125148;-73
2021/06/24 08:39:47;;;;;;;14.55;13.10;;;;;;;19.08;71.73;100960.59;4904707;28;97978;-73
2021/06/24 08:42:14;;;;;;;14.73;13.20;;;;;;;19.20;70.90;100961.94;4922055;28;98687;-73
2021/06/24 08:44:40;;;;;;;14.60;13.00;;;;;;;19.43;70.22;100960.78;4904630;28;114026;-74
2021/06/24 08:47:06;;;;;;;13.15;11.85;;;;;;;19.31;69.96;100960.56;4905447;28;97747;-81
2021/06/24 08:49:32;;;;;;;14.13;11.63;;;;;;;19.46;70.99;100953.88;4905375;28;98039;-81
2021/06/24 08:51:58;;;;;;;12.90;11.60;;;;;;;19.60;69.18;100958.09;4905396;28;98370;-74
2021/06/24 08:54:25;;;;;;;13.45;11.25;;;;;;;19.75;70.54;100956.91;4921338;28;97793;-74
2021/06/24 08:56:51;;;;;;;12.80;11.45;;;;;;;19.67;70.34;100954.16;4919944;28;124533;-74
2021/06/24 08:59:17;;;;;;;13.85;11.50;;;;;;;19.80;69.60;100951.28;4923207;28;97726;-73
2021/06/24 09:02:01;;;;;;;12.50;10.65;;;;;;;20.10;68.98;100957.78;4922962;28;98502;-82
2021/06/24 09:04:30;;;;;;;12.50;11.15;;;;;;;20.09;67.84;100947.16;4871878;28;99212;-78
2021/06/24 09:07:10;;;;;;;11.98;10.15;;;;;;;20.23;68.96;100955.22;4889690;28;97918;-81
2021/06/24 09:09:37;;;;;;;10.93;9.82;;;;;;;20.34;67.57;100956.53;4889622;28;98040;-74
2021/06/24 09:12:11;;;;;;;11.35;9.07;;;;;;;20.51;67.63;100956.56;4905402;28;98189;-74
2021/06/24 09:14:44;;;;;;;10.60;9.40;;;;;;;20.64;67.18;100945.78;4904308;28;97846;-81
2021/06/24 09:17:12;;;;;;;11.23;9.20;;;;;;;20.65;65.99;100950.13;4920488;28;98037;-82
2021/06/24 09:19:41;;;;;;;11.48;9.25;;;;;;;20.48;66.69;100950.91;4904523;28;97975;-81
2021/06/24 09:22:12;;;;;;;10.20;8.50;;;;;;;20.92;65.68;100941.53;4904539;28;101310;-81
2021/06/24 09:24:42;;;;;;;9.45;8.02;;;;;;;21.06;63.50;100942.16;4920828;28;100556;-82
2021/06/24 09:27:17;;;;;;;8.10;7.32;;;;;;;21.39;63.35;100946.28;4904730;28;98471;-82
2021/06/24 09:29:51;;;;;;;8.75;7.22;;;;;;;21.24;62.99;100950.31;4920824;28;97815;-81
2021/06/24 09:32:43;;;;;;;10.23;7.63;;;;;;;21.86;61.68;100946.22;4905448;28;98630;-82
2021/06/24 09:35:20;;;;;;;10.05;7.63;;;;;;;22.77;58.99;100945.34;4920650;28;98572;-74
2021/06/24 09:38:15;;;;;;;11.02;7.30;;;;;;;23.00;58.59;100953.25;4889287;28;100356;-74
2021/06/24 09:40:49;;;;;;;9.95;6.88;;;;;;;22.51;58.66;100953.81;4922923;28;97714;-81
2021/06/24 09:43:27;;;;;;;8.73;6.18;;;;;;;22.97;57.82;100949.22;4920263;28;98080;-83
2021/06/24 09:46:19;;;;;;;9.95;6.15;;;;;;;22.79;56.73;100945.84;4922550;28;99283;-74
2021/06/24 09:48:47;;;;;;;9.45;6.40;;;;;;;23.92;54.43;100952.78;4920633;28;98249;-75
2021/06/24 09:51:23;;;;;;;7.30;5.95;;;;;;;23.92;55.30;100946.47;4920498;28;98080;-83
2021/06/24 09:54:00;;;;;;;7.93;6.20;;;;;;;23.68;55.36;100952.78;4920204;28;98281;-75
2021/06/24 09:56:30;;;;;;;8.18;5.82;;;;;;;24.00;55.54;100954.59;4920554;28;98745;-74
2021/06/24 09:58:57;;;;;;;7.18;6.00;;;;;;;24.28;54.60;100953.06;4902973;28;99291;-83
2021/06/24 10:01:29;;;;;;;8.02;6.20;;;;;;;25.01;52.84;100941.75;4920222;28;97851;-83
2021/06/24 10:03:57;;;;;;;7.75;6.65;;;;;;;24.38;54.05;100947.91;4918720;28;100216;-74
2021/06/24 10:06:24;;;;;;;9.50;6.00;;;;;;;24.53;54.12;100946.34;4920517;28;98187;-75
2021/06/24 10:08:51;;;;;;;6.85;5.47;;;;;;;26.05;49.74;100938.78;4903974;28;99320;-75
2021/06/24 10:11:17;;;;;;;6.82;5.40;;;;;;;25.77;49.48;100948.00;4920360;28;97781;-75
2021/06/24 10:13:43;;;;;;;7.25;5.50;;;;;;;25.08;52.31;100938.41;4887553;28;98249;-84
2021/06/24 10:16:10;;;;;;;6.72;5.28;;;;;;;26.22;49.44;100937.59;4903270;28;126759;-75
2021/06/24 10:18:36;;;;;;;5.50;5.00;;;;;;;25.97;49.30;100934.28;4886731;28;127686;-75
2021/06/24 10:21:03;;;;;;;6.57;5.22;;;;;;;26.01;50.11;100926.88;4893876;28;97757;-85
2021/06/24 10:23:29;;;;;;;6.65;5.18;;;;;;;26.05;50.22;100930.50;4868988;28;113894;-75
2021/06/24 10:25:55;;;;;;;7.57;5.32;;;;;;;25.15;51.35;100927.56;4884326;28;98194;-76
2021/06/24 10:28:21;;;;;;;8.07;5.28;;;;;;;26.00;50.31;100920.53;4883809;28;108003;-85
2021/06/24 10:30:48;;;;;;;6.45;5.00;;;;;;;25.99;49.84;100915.41;4867627;28;116976;-77
2021/06/24 10:33:15;;;;;;;6.00;5.15;;;;;;;25.75;50.51;100908.94;4909771;28;98509;-83
2021/06/24 10:35:51;;;;;;;8.90;5.15;;;;;;;25.37;51.08;100909.59;4888126;28;100477;-77
2021/06/24 10:38:18;;;;;;;5.65;4.85;;;;;;;24.40;52.12;100907.00;4921452;28;98244;-77
2021/06/24 10:40:54;;;;;;;9.40;5.40;;;;;;;23.97;53.94;100905.75;4872156;28;98082;-77
2021/06/24 10:43:22;;;;;;;7.97;5.50;;;;;;;23.70;55.73;100906.50;4885404;28;98432;-77
2021/06/24 10:45:48;;;;;;;6.53;5.03;;;;;;;23.90;55.17;100902.78;4868925;28;99964;-77
2021/06/24 10:48:24;;;;;;;7.82;5.35;;;;;;;23.35;57.30;100906.91;4883791;28;127887;-78
2021/06/24 10:51:03;;;;;;;5.47;4.88;;;;;;;23.51;55.45;100896.84;4902365;28;97894;-77
2021/06/24 10:53:32;;;;;;;8.25;4.95;;;;;;;23.72;54.56;100904.97;4885494;28;98324;-84
2021/06/24 10:55:58;;;;;;;6.40;4.68;;;;;;;24.01;55.85;100894.81;4902510;28;98113;-78
2021/06/24 10:58:26;;;;;;;5.60;4.60;;;;;;;24.02;54.13;100895.66;4885207;28;97975;-87
2021/06/24 11:00:59;;;;;;;6.38;4.50;;;;;;;23.70;54.63;100896.28;4901846;28;98028;-86
2021/06/24 11:03:36;;;;;;;5.53;4.80;;;;;;;23.59;54.67;100888.81;4870214;28;99869;-86
2021/06/24 11:06:12;;;;;;;6.72;4.70;;;;;;;23.34;56.62;100899.78;4870235;28;111441;-86
2021/06/24 11:08:40;;;;;;;5.35;4.85;;;;;;;23.68;56.69;100887.56;4877927;28;99398;-85
2021/06/24 11:11:14;;;;;;;6.68;4.93;;;;;;;23.58;54.73;100890.75;4863974;28;98038;-78